Time;durP1;ratioP1;P1;durP2;ratioP2;P2;SDS_P1;SDS_P2;PMS_P1;PMS_P2;Temp;Humidity;BMP_temperature;BMP_pressure;BME280_temperature;BME280_humidity;BME280_pressure;Samples;Min_cycle;Max_cycle;Signal;HPM_P1;HPM_P2
2022/01/01 00:02:15;;;;;;;;;;;;;;;12.63;2.25;99736.47;5019848;28;20470;-66
2022/01/01 00:04:42;;;;;;;;;;;;;;;12.58;3.60;99733.19;5023106;28;19922;-66
2022/01/01 00:07:07;;;;;;;;;;;;;;;12.91;5.10;99737.38;5023182;28;20012;-66
2022/01/01 00:09:33;;;;;;;;;;;;;;;12.61;6.18;99735.66;5019787;28;20409;-66
2022/01/01 00:11:58;;;;;;;;;;;;;;;12.81;5.78;99733.34;5020523;28;19928;-66
2022/01/01 00:14:24;;;;;;;;;;;;;;;12.48;6.12;99741.19;5019780;28;19918;-66
2022/01/01 00:16:49;;;;;;;;;;;;;;;12.47;6.92;99739.47;5023100;28;20135;-66
2022/01/01 00:19:15;;;;;;;;;;;;;;;12.74;5.55;99731.84;5022420;28;19917;-66
2022/01/01 00:21:41;;;;;;;;;;;;;;;12.76;5.98;99740.41;5020517;28;20212;-66
2022/01/01 00:24:07;;;;;;;;;;;;;;;12.67;6.83;99746.66;5022957;28;20271;-66
2022/01/01 00:26:32;;;;;;;;;;;;;;;12.60;7.56;99744.31;5021591;28;19967;-66
2022/01/01 00:28:58;;;;;;;;;;;;;;;12.78;6.37;99738.63;5022339;28;19921;-66
2022/01/01 00:31:23;;;;;;;;;;;;;;;12.85;7.85;99737.53;5008127;28;19917;-65
2022/01/01 00:33:49;;;;;;;;;;;;;;;12.91;9.38;99734.78;5018728;28;19927;-66
2022/01/01 00:36:14;;;;;;;;;;;;;;;13.00;11.84;99725.03;5020550;28;20302;-65
2022/01/01 00:38:40;;;;;;;;;;;;;;;12.91;12.44;99729.63;5019681;28;19944;-66
2022/01/01 00:41:05;;;;;;;;;;;;;;;12.58;13.06;99726.25;5019087;28;20020;-66
2022/01/01 00:43:31;;;;;;;;;;;;;;;12.81;11.14;99735.94;5020099;28;19968;-70
2022/01/01 00:45:56;;;;;;;;;;;;;;;12.60;11.97;99744.31;5024582;28;19920;-66
2022/01/01 00:48:21;;;;;;;;;;;;;;;12.46;10.52;99758.47;5023188;28;19928;-65
2022/01/01 00:50:47;;;;;;;;;;;;;;;13.05;8.99;99742.13;5016652;28;20032;-66
2022/01/01 00:53:12;;;;;;;;;;;;;;;12.75;12.81;99741.31;5017699;28;19929;-65
2022/01/01 00:55:38;;;;;;;;;;;;;;;13.13;12.47;99734.13;5019802;28;19956;-66
2022/01/01 00:58:03;;;;;;;;;;;;;;;13.02;16.19;99741.34;5020173;28;20381;-66
2022/01/01 01:00:29;;;;;;;;;;;;;;;12.97;18.75;99739.75;5022203;28;19923;-65
2022/01/01 01:02:54;;;;;;;;;;;;;;;12.46;21.04;99735.22;5008125;28;19913;-66
2022/01/01 01:05:19;;;;;;;;;;;;;;;12.90;15.84;99743.41;5020432;28;19932;-66
2022/01/01 01:07:45;;;;;;;;;;;;;;;13.01;16.74;99740.53;5019120;28;19979;-66
2022/01/01 01:10:12;;;;;;;;;;;;;;;12.78;19.99;99741.22;5018745;28;20048;-66
2022/01/01 01:12:42;;;;;;;;;;;;;;;12.70;19.16;99746.59;5015905;28;20023;-65
2022/01/01 01:15:10;;;;;;;;;;;;;;;12.97;20.69;99752.69;5021563;28;19997;-66
2022/01/01 01:17:36;;;;;;;;;;;;;;;13.27;20.38;99742.28;5019455;28;19921;-65
2022/01/01 01:20:02;;;;;;;;;;;;;;;12.49;23.75;99750.63;5024557;28;20317;-65
2022/01/01 01:22:29;;;;;;;;;;;;;;;12.62;18.96;99769.22;5019577;28;19924;-66
2022/01/01 01:24:54;;;;;;;;;;;;;;;12.39;17.19;99772.44;5020703;28;19940;-65
2022/01/01 01:27:20;;;;;;;;;;;;;;;12.42;16.18;99767.19;5024187;28;19925;-66
2022/01/01 01:29:46;;;;;;;;;;;;;;;12.61;14.76;99777.00;5017084;28;19921;-66
2022/01/01 01:32:11;;;;;;;;;;;;;;;12.38;15.58;99786.22;5020391;28;20051;-65
2022/01/01 01:34:37;;;;;;;;;;;;;;;12.44;12.80;99791.25;5017889;28;19921;-65
2022/01/01 01:37:03;;;;;;;;;;;;;;;12.32;12.57;99799.31;5017790;28;19944;-65
2022/01/01 01:39:28;;;;;;;;;;;;;;;12.40;10.92;99810.28;5021769;28;20951;-65
2022/01/01 01:41:54;;;;;;;;;;;;;;;12.63;9.27;99808.81;5020808;28;19921;-65
2022/01/01 01:44:32;;;;;;;;;;;;;;;12.47;9.83;99808.38;5020486;28;19932;-65
2022/01/01 01:46:59;;;;;;;;;;;;;;;12.47;9.82;99813.56;5006967;28;19996;-65
2022/01/01 01:49:25;;;;;;;;;;;;;;;12.43;10.72;99814.53;5021572;28;19991;-65
2022/01/01 01:51:50;;;;;;;;;;;;;;;12.39;9.83;99805.19;5016323;28;20394;-65
2022/01/01 01:54:17;;;;;;;;;;;;;;;12.32;8.97;99797.59;5018659;28;20011;-65
2022/01/01 01:56:43;;;;;;;;;;;;;;;12.62;12.30;99804.56;5006638;28;19921;-65
2022/01/01 01:59:10;;;;;;;;;;;;;;;12.42;10.89;99805.94;5019669;28;19920;-65
2022/01/01 02:01:36;;;;;;;;;;;;;;;12.49;10.95;99799.72;5022125;28;19956;-65
2022/01/01 02:04:01;;;;;;;;;;;;;;;12.47;10.51;99804.06;5021707;28;19920;-65
2022/01/01 02:06:27;;;;;;;;;;;;;;;12.66;10.34;99795.84;5007475;28;19921;-65
2022/01/01 02:08:52;;;;;;;;;;;;;;;12.69;11.04;99790.56;5018423;28;19932;-65
2022/01/01 02:11:19;;;;;;;;;;;;;;;12.85;12.71;99797.00;5019706;28;19932;-65
2022/01/01 02:14:02;;;;;;;;;;;;;;;12.44;14.43;99801.56;5024150;28;19959;-65
2022/01/01 02:16:36;;;;;;;;;;;;;;;13.14;12.28;99798.75;5023968;28;19924;-65
2022/01/01 02:19:02;;;;;;;;;;;;;;;12.74;15.58;99793.88;5010562;28;19927;-65
2022/01/01 02:21:28;;;;;;;;;;;;;;;12.71;20.69;99787.06;5022793;28;19999;-65
2022/01/01 02:23:58;;;;;;;;;;;;;;;12.94;18.88;99785.56;5021893;28;19971;-65
2022/01/01 02:26:31;;;;;;;;;;;;;;;12.55;21.70;99786.63;5023594;28;19927;-65
2022/01/01 02:28:56;;;;;;;;;;;;;;;12.94;20.24;99788.97;5021173;28;19926;-65
2022/01/01 02:31:22;;;;;;;;;;;;;;;12.93;23.21;99795.06;5023928;28;20304;-65
2022/01/01 02:33:47;;;;;;;;;;;;;;;13.05;28.67;99785.25;5024607;28;19917;-65
2022/01/01 02:36:13;;;;;;;;;;;;;;;13.19;30.05;99785.69;5023030;28;20015;-65
2022/01/01 02:38:39;;;;;;;;;;;;;;;12.75;34.68;99785.25;5028014;28;19924;-65
2022/01/01 02:41:04;;;;;;;;;;;;;;;13.19;33.72;99772.75;5021788;28;20582;-65
2022/01/01 02:43:31;;;;;;;;;;;;;;;13.29;33.92;99771.59;5025105;28;19928;-65
2022/01/01 02:45:57;;;;;;;;;;;;;;;13.13;34.36;99776.34;5024587;28;19923;-65
2022/01/01 02:48:23;;;;;;;;;;;;;;;12.83;35.27;99783.25;5019504;28;19972;-65
2022/01/01 02:50:51;;;;;;;;;;;;;;;12.68;32.78;99796.63;5021308;28;19961;-65
2022/01/01 02:53:17;;;;;;;;;;;;;;;12.80;30.49;99787.69;5020685;28;20024;-65
2022/01/01 02:55:43;;;;;;;;;;;;;;;12.96;32.48;99789.78;5022158;28;20007;-65
2022/01/01 02:58:11;;;;;;;;;;;;;;;13.05;33.16;99777.50;5024144;28;20008;-65
2022/01/01 03:00:37;;;;;;;;;;;;;;;12.82;36.90;99776.41;5022838;28;19917;-65
2022/01/01 03:03:03;;;;;;;;;;;;;;;13.13;34.38;99776.34;5006920;28;19918;-65
2022/01/01 03:05:30;;;;;;;;;;;;;;;12.80;36.32;99783.38;5020715;28;19909;-65
2022/01/01 03:07:56;;;;;;;;;;;;;;;12.90;32.99;99779.59;5020719;28;20282;-66
2022/01/01 03:10:21;;;;;;;;;;;;;;;12.77;35.39;99783.44;5022902;28;19979;-65
2022/01/01 03:12:47;;;;;;;;;;;;;;;13.13;38.99;99780.69;5023674;28;19917;-66
2022/01/01 03:15:12;;;;;;;;;;;;;;;13.08;41.20;99782.56;5022907;28;20060;-66
2022/01/01 03:17:37;;;;;;;;;;;;;;;12.80;40.69;99777.34;5022052;28;20286;-67
2022/01/01 03:20:04;;;;;;;;;;;;;;;13.13;38.44;99780.69;5020357;28;19921;-66
2022/01/01 03:22:29;;;;;;;;;;;;;;;12.99;39.07;99788.84;5018937;28;19917;-67
2022/01/01 03:24:55;;;;;;;;;;;;;;;13.16;40.65;99775.44;5020970;28;19944;-66
2022/01/01 03:27:20;;;;;;;;;;;;;;;13.29;42.24;99774.16;5020409;28;19925;-66
2022/01/01 03:29:47;;;;;;;;;;;;;;;13.20;46.29;99777.00;5024148;28;20355;-66
2022/01/01 03:32:12;;;;;;;;;;;;;;;13.48;49.31;99781.34;5023823;28;19913;-66
2022/01/01 03:34:37;;;;;;;;;;;;;;;12.82;55.09;99788.47;5025017;28;19924;-64
2022/01/01 03:37:03;;;;;;;;;;;;;;;13.07;52.90;99791.19;5022893;28;20290;-66
2022/01/01 03:39:28;;;;;;;;;;;;;;;12.81;53.38;99790.22;5021668;28;19918;-67
2022/01/01 03:41:54;;;;;;;;;;;;;;;12.81;52.39;99791.97;5023213;28;19913;-66
2022/01/01 03:44:19;;;;;;;;;;;;;;;13.09;53.66;99804.94;5020961;28;20373;-66
2022/01/01 03:46:45;;;;;;;;;;;;;;;12.98;52.54;99803.50;5021521;28;20409;-66
2022/01/01 03:49:10;;;;;;;;;;;;;;;13.14;57.09;99803.06;4950957;28;2028374;-66
2022/01/01 03:51:36;;;;;;;;;;;;;;;12.95;57.53;99798.44;5021838;28;19931;-66
2022/01/01 03:54:01;;;;;;;;;;;;;;;13.12;59.13;99804.84;5022244;28;20003;-67
2022/01/01 03:56:26;;;;;;;;;;;;;;;12.90;58.86;99800.28;5020722;28;19917;-66
2022/01/01 03:58:52;;;;;;;;;;;;;;;12.86;57.09;99806.44;5019048;28;19975;-65
2022/01/01 04:01:17;;;;;;;;;;;;;;;13.24;57.11;99801.91;5020640;28;19925;-66
2022/01/01 04:03:43;;;;;;;;;;;;;;;12.93;59.28;99802.81;5022644;28;20271;-65
2022/01/01 04:06:09;;;;;;;;;;;;;;;13.27;60.19;99801.78;5022709;28;20290;-66
2022/01/01 04:08:35;;;;;;;;;;;;;;;13.24;63.68;99794.13;5021706;28;19960;-66
2022/01/01 04:11:01;;;;;;;;;;;;;;;13.00;68.00;99789.69;5008269;28;20307;-66
2022/01/01 04:13:26;;;;;;;;;;;;;;;13.22;68.42;99785.56;5022207;28;20032;-66
2022/01/01 04:15:52;;;;;;;;;;;;;;;13.04;71.50;99779.19;5022716;28;19917;-66
2022/01/01 04:18:26;;;;;;;;;;;;;;;13.21;71.23;99777.88;5018424;28;19921;-67
2022/01/01 04:20:52;;;;;;;;;;;;;;;13.19;72.52;99772.75;5022445;28;19949;-66
2022/01/01 04:23:17;;;;;;;;;;;;;;;13.35;76.85;99771.41;5023132;28;19971;-66
2022/01/01 04:25:47;;;;;;;;;;;;;;;12.89;82.39;99780.50;5021912;28;20270;-66
2022/01/01 04:28:13;;;;;;;;;;;;;;;13.10;79.13;99778.19;5020876;28;19919;-66
2022/01/01 04:30:38;;;;;;;;;;;;;;;13.30;79.62;99778.47;5019814;28;20004;-66
2022/01/01 04:33:04;;;;;;;;;;;;;;;12.85;82.73;99791.81;5021178;28;20091;-66
2022/01/01 04:35:29;;;;;;;;;;;;;;;13.12;81.16;99786.75;5020780;28;19917;-66
2022/01/01 04:37:54;;;;;;;;;;;;;;;13.19;82.30;99790.84;5020848;28;19919;-66
2022/01/01 04:40:20;;;;;;;;;;;;;;;13.24;83.62;99788.97;5025359;28;19922;-66
2022/01/01 04:42:45;;;;;;;;;;;;;;;13.24;84.66;99783.78;5019306;28;19975;-66
2022/01/01 04:45:11;;;;;;;;;;;;;;;13.47;85.36;99774.50;5022684;28;19918;-66
2022/01/01 04:47:37;;;;;;;;;;;;;;;13.51;88.01;99773.53;5022305;28;20376;-65
2022/01/01 04:50:04;;;;;;;;;;;;;;;13.62;90.97;99774.03;5020067;28;19971;-66
2022/01/01 04:52:29;;;;;;;;;;;;;;;13.35;92.89;99776.56;5021970;28;19913;-65
2022/01/01 04:54:55;;;;;;;;;;;;;;;13.48;89.33;99776.19;5020402;28;19917;-65
2022/01/01 04:57:25;;;;;;;;;;;;;;;12.87;91.76;99774.53;5024701;28;19918;-66
2022/01/01 04:59:50;;;;;;;;;;;;;;;13.72;90.98;99770.22;5022759;28;19943;-65
2022/01/01 05:02:15;;;;;;;;;;;;;;;12.85;94.90;99778.91;5020486;28;19913;-66
2022/01/01 05:04:41;;;;;;;;;;;;;;;12.83;93.07;99785.84;5022022;28;19913;-66
2022/01/01 05:07:07;;;;;;;;;;;;;;;13.09;91.12;99786.81;5020157;28;19921;-66
2022/01/01 05:09:32;;;;;;;;;;;;;;;12.93;90.96;99794.19;5021505;28;20075;-66
2022/01/01 05:11:57;;;;;;;;;;;;;;;13.10;90.03;99796.28;5021821;28;19920;-65
2022/01/01 05:14:23;;;;;;;;;;;;;;;13.69;91.73;99793.63;5019735;28;19925;-66
2022/01/01 05:16:51;;;;;;;;;;;;;;;13.21;94.61;99789.06;5019875;28;20313;-65
2022/01/01 05:19:16;;;;;;;;;;;;;;;13.10;95.99;99791.13;5018979;28;19917;-66
2022/01/01 05:21:42;;;;;;;;;;;;;;;12.76;94.74;99797.25;5020501;28;20404;-65
2022/01/01 05:24:08;;;;;;;;;;;;;;;13.15;93.04;99786.66;5020120;28;19917;-65
2022/01/01 05:26:33;;;;;;;;;;;;;;;12.93;94.46;99796.75;5017507;28;19973;-66
2022/01/01 05:28:59;;;;;;;;;;;;;;;13.00;94.19;99779.34;5022263;28;19917;-66
2022/01/01 05:31:24;;;;;;;;;;;;;;;13.28;94.90;99788.00;5021837;28;19968;-66
2022/01/01 05:33:50;;;;;;;;;;;;;;;13.35;97.37;99776.56;5019985;28;19925;-66
2022/01/01 05:36:15;;;;;;;;;;;;;;;13.20;98.77;99782.19;5017974;28;19967;-66
2022/01/01 05:38:41;;;;;;;;;;;;;;;12.97;99.60;99781.13;5019434;28;19921;-66
2022/01/01 05:41:07;;;;;;;;;;;;;;;13.28;97.64;99795.78;5022007;28;20349;-66
2022/01/01 05:43:32;;;;;;;;;;;;;;;13.77;100.00;99789.03;5021168;28;19928;-65
2022/01/01 05:45:58;;;;;;;;;;;;;;;12.74;100.00;99801.63;5020742;28;19913;-66
2022/01/01 05:48:23;;;;;;;;;;;;;;;13.23;97.56;99810.56;5025122;28;19913;-66
2022/01/01 05:50:48;;;;;;;;;;;;;;;13.60;98.95;99799.09;5024128;28;19974;-66
2022/01/01 05:53:14;;;;;;;;;;;;;;;12.96;100.00;99809.63;5024935;28;20282;-66
2022/01/01 05:55:40;;;;;;;;;;;;;;;13.17;99.16;99818.50;5022676;28;19928;-66
2022/01/01 05:58:08;;;;;;;;;;;;;;;13.22;95.76;99826.94;5022833;28;19921;-66
2022/01/01 06:00:34;;;;;;;;;;;;;;;13.49;97.56;99840.00;5024060;28;19913;-65
2022/01/01 06:02:59;;;;;;;;;;;;;;;13.73;100.00;99833.19;5024660;28;19924;-65
2022/01/01 06:05:26;;;;;;;;;;;;;;;13.48;100.00;99827.94;5024884;28;19917;-65
2022/01/01 06:07:51;;;;;;;;;;;;;;;13.75;100.00;99827.09;5020616;28;19917;-66
2022/01/01 06:10:16;;;;;;;;;;;;;;;13.64;100.00;99830.91;5023606;28;19937;-65
2022/01/01 06:12:42;;;;;;;;;;;;;;;13.47;100.00;99842.63;5027684;28;20016;-65
2022/01/01 06:15:08;;;;;;;;;;;;;;;13.22;100.00;99841.63;5023788;28;19920;-66
2022/01/01 06:17:33;;;;;;;;;;;;;;;13.29;100.00;99844.00;5023439;28;19964;-65
2022/01/01 06:19:59;;;;;;;;;;;;;;;13.55;100.00;99845.00;5023422;28;19922;-65
2022/01/01 06:22:24;;;;;;;;;;;;;;;13.48;100.00;99851.22;5024610;28;20325;-65
2022/01/01 06:24:50;;;;;;;;;;;;;;;13.84;100.00;99835.44;5023765;28;19921;-65
2022/01/01 06:27:15;;;;;;;;;;;;;;;13.52;100.00;99837.31;5007941;28;19953;-65
2022/01/01 06:29:41;;;;;;;;;;;;;;;13.51;100.00;99833.88;5023907;28;20004;-65
2022/01/01 06:32:06;;;;;;;;;;;;;;;13.35;100.00;99838.66;5024274;28;19971;-65
2022/01/01 06:34:32;;;;;;;;;;;;;;;13.45;100.00;99833.22;5023557;28;19913;-65
2022/01/01 06:36:57;;;;;;;;;;;;;;;13.50;100.00;99831.31;5023559;28;19918;-66
2022/01/01 06:39:22;;;;;;;;;;;;;;;13.85;100.00;99821.63;5022755;28;19921;-65
2022/01/01 06:41:48;;;;;;;;;;;;;;;13.46;100.00;99827.16;5026719;28;20344;-65
2022/01/01 06:44:13;;;;;;;;;;;;;;;13.56;100.00;99826.81;5023953;28;19928;-66
2022/01/01 06:46:39;;;;;;;;;;;;;;;13.99;100.00;99829.78;5022524;28;19913;-65
2022/01/01 06:49:04;;;;;;;;;;;;;;;13.80;100.00;99832.97;5022005;28;19917;-65
2022/01/01 06:51:32;;;;;;;;;;;;;;;13.72;100.00;99837.53;5022442;28;19957;-65
2022/01/01 06:53:57;;;;;;;;;;;;;;;13.62;100.00;99830.13;5019289;28;20015;-65
2022/01/01 06:56:23;;;;;;;;;;;;;;;13.83;100.00;99828.59;5017784;28;20008;-65
2022/01/01 06:58:48;;;;;;;;;;;;;;;13.60;100.00;99837.94;5002921;28;19964;-65
2022/01/01 07:01:13;;;;;;;;;;;;;;;14.01;100.00;99838.34;5024248;28;19925;-65
2022/01/01 07:03:39;;;;;;;;;;;;;;;13.95;100.00;99831.63;5022207;28;20351;-65
2022/01/01 07:06:04;;;;;;;;;;;;;;;13.96;100.00;99840.25;5022731;28;19920;-66
2022/01/01 07:08:29;;;;;;;;;;;;;;;14.12;100.00;99841.44;5023917;28;19964;-65
2022/01/01 07:10:55;;;;;;;;;;;;;;;13.52;100.00;99845.06;5021615;28;20105;-65
2022/01/01 07:13:20;;;;;;;;;;;;;;;13.52;100.00;99845.91;5023869;28;19962;-65
2022/01/01 07:15:46;;;;;;;;;;;;;;;13.85;100.00;99847.53;5025812;28;19917;-64
2022/01/01 07:18:11;;;;;;;;;;;;;;;13.99;100.00;99855.69;5020486;28;19966;-65
2022/01/01 07:20:37;;;;;;;;;;;;;;;14.06;100.00;99846.81;5012623;28;19923;-65
2022/01/01 07:23:02;;;;;;;;;;;;;;;13.87;100.00;99845.72;5023638;28;20358;-65
2022/01/01 07:25:29;;;;;;;;;;;;;;;13.47;100.00;99852.13;5022577;28;19913;-65
2022/01/01 07:27:55;;;;;;;;;;;;;;;13.39;100.00;99855.81;5023130;28;20457;-65
2022/01/01 07:30:20;;;;;;;;;;;;;;;13.45;100.00;99864.25;5020037;28;20031;-64
2022/01/01 07:32:46;;;;;;;;;;;;;;;13.73;100.00;99859.94;5021623;28;19967;-66
2022/01/01 07:35:12;;;;;;;;;;;;;;;14.05;100.00;99859.81;5009459;28;19924;-63
2022/01/01 07:37:38;;;;;;;;;;;;;;;13.84;100.00;99848.41;5019485;28;20047;-65
2022/01/01 07:40:04;;;;;;;;;;;;;;;14.20;100.00;99854.97;5020058;28;19948;-65
2022/01/01 07:42:29;;;;;;;;;;;;;;;14.42;100.00;99854.25;5013366;28;19921;-68
2022/01/01 07:44:55;;;;;;;;;;;;;;;14.44;100.00;99853.31;5012477;28;19928;-64
2022/01/01 07:47:20;;;;;;;;;;;;;;;14.34;100.00;99864.03;5019086;28;19957;-65
2022/01/01 07:49:45;;;;;;;;;;;;;;;14.56;100.00;99867.63;5027415;28;19921;-66
2022/01/01 07:52:11;;;;;;;;;;;;;;;13.91;100.00;99857.66;5020864;28;19913;-66
2022/01/01 07:54:36;;;;;;;;;;;;;;;14.15;100.00;99867.22;5007969;28;19921;-66
2022/01/01 07:57:02;;;;;;;;;;;;;;;13.93;100.00;99861.03;5022418;28;19913;-66
2022/01/01 07:59:28;;;;;;;;;;;;;;;13.87;100.00;99866.44;5022422;28;19917;-66
2022/01/01 08:01:53;;;;;;;;;;;;;;;13.85;100.00;99869.06;5024083;28;19913;-65
2022/01/01 08:04:19;;;;;;;;;;;;;;;14.00;100.00;99872.91;5024966;28;20704;-65
2022/01/01 08:06:44;;;;;;;;;;;;;;;13.96;100.00;99882.53;5022230;28;19925;-66
2022/01/01 08:09:10;;;;;;;;;;;;;;;13.71;100.00;99890.22;5018861;28;19922;-66
2022/01/01 08:11:35;;;;;;;;;;;;;;;13.98;100.00;99892.81;5022158;28;20290;-66
2022/01/01 08:14:00;;;;;;;;;;;;;;;14.20;100.00;99896.41;5025927;28;19964;-66
2022/01/01 08:16:26;;;;;;;;;;;;;;;13.98;100.00;99888.50;5020227;28;20425;-66
2022/01/01 08:18:53;;;;;;;;;;;;;;;13.34;100.00;99893.91;5024987;28;19920;-66
2022/01/01 08:21:18;;;;;;;;;;;;;;;13.71;100.00;99897.97;5021630;28;19921;-65
2022/01/01 08:23:44;;;;;;;;;;;;;;;13.70;100.00;99913.53;5021338;28;19913;-65
2022/01/01 08:26:09;;;;;;;;;;;;;;;13.72;100.00;99910.00;5021617;28;19914;-66
2022/01/01 08:28:35;;;;;;;;;;;;;;;13.87;100.00;99918.22;5022707;28;19917;-65
2022/01/01 08:31:00;;;;;;;;;;;;;;;14.05;100.00;99916.78;5020933;28;20027;-65
2022/01/01 08:33:26;;;;;;;;;;;;;;;13.80;100.00;99913.22;5022287;28;19971;-65
2022/01/01 08:35:51;;;;;;;;;;;;;;;14.03;100.00;99911.66;5020054;28;20359;-65
2022/01/01 08:38:16;;;;;;;;;;;;;;;14.09;100.00;99911.44;5022751;28;19913;-65
2022/01/01 08:40:42;;;;;;;;;;;;;;;14.14;100.00;99907.00;5022947;28;19960;-65
2022/01/01 08:43:08;;;;;;;;;;;;;;;14.22;100.00;99899.81;5020503;28;20911;-64
2022/01/01 08:45:37;;;;;;;;;;;;;;;13.94;100.00;99891.25;5022303;28;20450;-65
2022/01/01 08:48:03;;;;;;;;;;;;;;;13.79;100.00;99893.41;5021359;28;20357;-65
2022/01/01 08:50:28;;;;;;;;;;;;;;;13.73;100.00;99896.19;5021570;28;20015;-64
2022/01/01 08:52:54;;;;;;;;;;;;;;;13.57;100.00;99898.41;5022008;28;19920;-65
2022/01/01 08:55:19;;;;;;;;;;;;;;;13.85;100.00;99899.31;5022587;28;19913;-65
2022/01/01 08:57:45;;;;;;;;;;;;;;;13.78;100.00;99899.47;5024626;28;19988;-65
2022/01/01 09:00:10;;;;;;;;;;;;;;;13.62;100.00;99898.25;5021429;28;19928;-65
2022/01/01 09:02:36;;;;;;;;;;;;;;;13.87;100.00;99913.91;5025042;28;19905;-67
2022/01/01 09:05:02;;;;;;;;;;;;;;;14.16;100.00;99910.38;5007114;28;19930;-65
2022/01/01 09:07:29;;;;;;;;;;;;;;;13.97;100.00;99906.69;5024337;28;20367;-65
2022/01/01 09:09:57;;;;;;;;;;;;;;;13.97;100.00;99915.28;4993131;28;20595;-63
2022/01/01 09:12:23;;;;;;;;;;;;;;;13.88;100.00;99918.16;5023545;28;19925;-64
2022/01/01 09:14:48;;;;;;;;;;;;;;;14.00;100.00;99919.50;5024713;28;19918;-65
2022/01/01 09:17:14;;;;;;;;;;;;;;;14.30;100.00;99917.72;5022779;28;19925;-65
2022/01/01 09:19:39;;;;;;;;;;;;;;;14.32;100.00;99915.94;5022914;28;19924;-66
2022/01/01 09:22:05;;;;;;;;;;;;;;;14.01;100.00;99924.66;5030678;28;19973;-68
2022/01/01 09:24:30;;;;;;;;;;;;;;;14.21;100.00;99918.84;5026473;28;19921;-68
2022/01/01 09:26:56;;;;;;;;;;;;;;;14.07;100.00;99920.19;5004778;28;20302;-65
2022/01/01 09:29:22;;;;;;;;;;;;;;;14.20;100.00;99918.91;5012531;28;20012;-64
2022/01/01 09:31:47;;;;;;;;;;;;;;;14.13;100.00;99926.00;5027323;28;19917;-64
2022/01/01 09:34:13;;;;;;;;;;;;;;;14.31;100.00;99915.97;5028752;28;20004;-65
2022/01/01 09:36:38;;;;;;;;;;;;;;;14.37;100.00;99913.19;5029475;28;20409;-65
2022/01/01 09:39:06;;;;;;;;;;;;;;;14.33;100.00;99922.78;5030258;28;19917;-64
2022/01/01 09:41:32;;;;;;;;;;;;;;;14.18;100.00;99918.94;5030022;28;20016;-64
2022/01/01 09:43:58;;;;;;;;;;;;;;;14.25;100.00;99921.34;5013937;28;20036;-65
2022/01/01 09:46:23;;;;;;;;;;;;;;;14.34;100.00;99918.44;5029612;28;19914;-63
2022/01/01 09:48:49;;;;;;;;;;;;;;;14.32;100.00;99917.66;5028489;28;19923;-65
2022/01/01 09:51:15;;;;;;;;;;;;;;;14.43;100.00;99925.91;5029219;28;20436;-65
2022/01/01 09:53:40;;;;;;;;;;;;;;;14.25;100.00;99918.75;5029822;28;20027;-65
2022/01/01 09:56:06;;;;;;;;;;;;;;;14.25;100.00;99911.81;5029788;28;20018;-65
2022/01/01 09:58:32;;;;;;;;;;;;;;;14.66;100.00;99911.38;5015075;28;20541;-65
2022/01/01 10:00:58;;;;;;;;;;;;;;;14.73;100.00;99905.91;5008529;28;19936;-65
2022/01/01 10:03:37;;;;;;;;;;;;;;;14.90;100.00;99907.94;5022491;28;20357;-65
2022/01/01 10:06:09;;;;;;;;;;;;;;;14.50;100.00;99904.06;5027127;28;19948;-65
2022/01/01 10:08:38;;;;;;;;;;;;;;;14.21;100.00;99898.13;5023949;28;20000;-65
2022/01/01 10:11:03;;;;;;;;;;;;;;;14.68;100.00;99896.63;5009092;28;20338;-65
2022/01/01 10:13:30;;;;;;;;;;;;;;;14.72;100.00;99899.03;5009671;28;19960;-64
2022/01/01 10:15:56;;;;;;;;;;;;;;;14.74;100.00;99905.03;5024823;28;19925;-64
2022/01/01 10:18:28;;;;;;;;;;;;;;;14.71;100.00;99896.50;5025790;28;19921;-65
2022/01/01 10:20:58;;;;;;;;;;;;;;;14.44;100.00;99897.38;5024788;28;19928;-65
2022/01/01 10:23:27;;;;;;;;;;;;;;;14.50;100.00;99890.28;5012176;28;20003;-65
2022/01/01 10:28:36;;;;;;;;;;;;;;;14.26;100.00;99897.13;5010865;28;19932;-65
2022/01/01 10:31:07;;;;;;;;;;;;;;;14.77;100.00;99897.13;5026698;28;19922;-65
2022/01/01 10:33:32;;;;;;;;;;;;;;;14.99;100.00;99897.22;5025810;28;19921;-65
2022/01/01 10:35:58;;;;;;;;;;;;;;;14.91;100.00;99893.22;5022492;28;20321;-65
2022/01/01 10:38:27;;;;;;;;;;;;;;;14.69;100.00;99900.88;5024094;28;19947;-65
2022/01/01 10:40:54;;;;;;;;;;;;;;;14.97;100.00;99891.25;5022898;28;19924;-65
2022/01/01 10:43:20;;;;;;;;;;;;;;;14.77;100.00;99885.91;5025243;28;19921;-65
2022/01/01 10:45:48;;;;;;;;;;;;;;;14.98;100.00;99882.56;5020548;28;20290;-64
2022/01/01 10:51:05;;;;;;;;;;;;;;;14.98;100.00;99879.97;5023813;28;20610;-66
2022/01/01 10:53:31;;;;;;;;;;;;;;;14.70;100.00;99876.66;5020700;28;20501;-65
2022/01/01 10:55:57;;;;;;;;;;;;;;;14.83;100.00;99878.78;5011958;28;19924;-64
2022/01/01 10:58:24;;;;;;;;;;;;;;;14.60;100.00;99874.41;5021879;28;19928;-64
2022/01/01 11:00:50;;;;;;;;;;;;;;;14.91;100.00;99877.66;5020356;28;19917;-65
2022/01/01 11:03:17;;;;;;;;;;;;;;;14.87;100.00;99871.75;5021207;28;19914;-65
2022/01/01 11:05:43;;;;;;;;;;;;;;;15.20;100.00;99871.41;5026712;28;19960;-65
2022/01/01 11:08:10;;;;;;;;;;;;;;;15.02;100.00;99871.16;5020021;28;20029;-65
2022/01/01 11:10:36;;;;;;;;;;;;;;;15.11;100.00;99872.59;5022722;28;19917;-65
2022/01/01 11:13:02;;;;;;;;;;;;;;;15.04;100.00;99873.72;5019459;28;20020;-65
2022/01/01 11:15:28;;;;;;;;;;;;;;;15.32;100.00;99867.50;5008745;28;19921;-65
2022/01/01 11:18:15;;;;;;;;;;;;;;;15.43;100.00;99860.16;5021925;28;19917;-66
2022/01/01 11:20:40;;;;;;;;;;;;;;;15.01;100.00;99861.72;5022368;28;19957;-64
2022/01/01 11:23:10;;;;;;;;;;;;;;;15.05;100.00;99865.03;5006446;28;19928;-65
2022/01/01 11:25:36;;;;;;;;;;;;;;;15.19;100.00;99864.50;5026005;28;19924;-65
2022/01/01 11:28:07;;;;;;;;;;;;;;;15.17;100.00;99859.41;5019717;28;19913;-64
2022/01/01 11:30:38;;;;;;;;;;;;;;;15.41;100.00;99849.00;5022299;28;19971;-65
2022/01/01 11:33:04;;;;;;;;;;;;;;;15.41;100.00;99852.41;5018116;28;19928;-64
2022/01/01 11:35:34;;;;;;;;;;;;;;;15.46;100.00;99850.53;5021027;28;19954;-64
2022/01/01 11:38:20;;;;;;;;;;;;;;;15.35;100.00;99839.69;5022096;28;19917;-65
2022/01/01 11:40:46;;;;;;;;;;;;;;;14.99;100.00;99839.31;5018475;28;19928;-64
2022/01/01 11:43:29;;;;;;;;;;;;;;;15.04;100.00;99843.44;5019979;28;19922;-65
2022/01/01 11:45:58;;;;;;;;;;;;;;;15.09;100.00;99824.25;5019079;28;19925;-68
2022/01/01 11:48:28;;;;;;;;;;;;;;;15.19;100.00;99816.09;5021641;28;19921;-66
2022/01/01 11:50:54;;;;;;;;;;;;;;;14.92;100.00;99804.97;5021161;28;19928;-66
2022/01/01 11:53:29;;;;;;;;;;;;;;;14.91;100.00;99789.47;5023608;28;19916;-66
2022/01/01 11:56:05;;;;;;;;;;;;;;;14.83;100.00;99788.00;5023988;28;19924;-66
2022/01/01 11:59:03;;;;;;;;;;;;;;;15.10;100.00;99792.22;5019995;28;19917;-66
2022/01/01 12:01:30;;;;;;;;;;;;;;;15.39;100.00;99781.56;4974404;28;20712;-66
2022/01/01 12:03:56;;;;;;;;;;;;;;;15.19;100.00;99774.56;5001969;28;19933;-66
2022/01/01 12:06:23;;;;;;;;;;;;;;;15.28;100.00;99778.56;5017195;28;19964;-66
2022/01/01 12:08:50;;;;;;;;;;;;;;;15.38;100.00;99763.47;5020350;28;19929;-66
2022/01/01 12:11:29;;;;;;;;;;;;;;;15.20;100.00;99759.84;5006807;28;20484;-66
2022/01/01 12:13:55;;;;;;;;;;;;;;;15.14;100.00;99760.06;5016193;28;19925;-65
2022/01/01 12:16:21;;;;;;;;;;;;;;;15.16;100.00;99760.84;5021529;28;19936;-65
2022/01/01 12:18:47;;;;;;;;;;;;;;;15.31;100.00;99749.88;5019390;28;19944;-65
2022/01/01 12:21:22;;;;;;;;;;;;;;;15.16;100.00;99742.69;5019052;28;20446;-65
2022/01/01 12:23:48;;;;;;;;;;;;;;;14.95;100.00;99744.38;5018714;28;19916;-65
2022/01/01 12:26:15;;;;;;;;;;;;;;;15.38;100.00;99742.69;5006719;28;19921;-65
2022/01/01 12:28:42;;;;;;;;;;;;;;;15.70;100.00;99738.78;5018664;28;19909;-66
2022/01/01 12:31:15;;;;;;;;;;;;;;;16.06;100.00;99735.59;5017502;28;19943;-66
2022/01/01 12:33:52;;;;;;;;;;;;;;;15.94;100.00;99733.50;5023109;28;19917;-65
2022/01/01 12:36:21;;;;;;;;;;;;;;;15.79;100.00;99732.41;5022917;28;19917;-65
2022/01/01 12:38:55;;;;;;;;;;;;;;;15.91;100.00;99726.69;5023734;28;19923;-65
2022/01/01 12:41:21;;;;;;;;;;;;;;;15.83;100.00;99718.41;5020457;28;19925;-65
2022/01/01 12:43:50;;;;;;;;;;;;;;;15.69;100.00;99722.38;5016987;28;19925;-65
2022/01/01 12:46:18;;;;;;;;;;;;;;;15.82;100.00;99714.94;5015852;28;20359;-66